Tiempo atmosférico en la estación meteorológica de Cañizares, Cuenca (940 m.)



Fecha
DESCASC
Temp. máxima en grados centígrados (hora)
DESCASC
Temp. mínima en grados centígrados (hora)
DESCASC
Temp. media en grados centígrados
DESCASC
Racha de viento máxima en m/sg (hora)
DESCASC
Velocidad máxima media en intervalos de 10 minutos(hora)
DESCASC
Precipitaciones diarias en mm
DESCASC
Precipitaciones de 00:00 a 06:00 en mm
DESCASC
Precipitaciones de 06:00 a 12:00 en mm
DESCASC
Precipitaciones de 12:00 a 18:00 en mm
DESCASC
Precipitaciones de 18:00 a 24:00 en mm
DESCASC
22-04-2019 15.7 (13:10) 7 (07:40) 11.3 -- (--) -- (--) 0.1 0.1 0 0 0
21-04-2019 11.2 (16:00) 4.7 (03:20) 7.9 -- (--) -- (--) 0.9 0.8 0 0 0.1
20-04-2019 16.6 (12:10) 6.9 (23:59) 11.8 -- (--) -- (--) 1.3 0 0 0 1.3
19-04-2019 12.6 (20:00) 6.4 (04:50) 9.5 -- (--) -- (--) 17.8 2.5 10.9 4.4 0
18-04-2019 15.8 (00:10) 6.8 (00:00) 11.3 -- (--) -- (--) 37.9 0 8.8 14.3 14.8
17-04-2019 25.1 (16:10) 6.4 (00:00) 15.8 -- (--) -- (--) 0 0 0 0 0
16-04-2019 23 (17:20) 4.1 (00:00) 13.5 -- (--) -- (--) 0 0 0 0 0
15-04-2019 23.9 (15:30) 6.5 (00:00) 15.2 -- (--) -- (--) 0 0 0 0 0
14-04-2019 24.5 (17:50) 1.4 (00:00) 12.9 -- (--) -- (--) 0 0 0 0 0
13-04-2019 22 (18:00) -1.4 (-00:0) 10.3 -- (--) -- (--) 0 0 0 0 0
12-04-2019 17.6 (17:40) -0.5 (-00:0) 8.6 -- (--) -- (--) 0 0 0 0 0
11-04-2019 14.7 (17:10) 0.5 (00:00) 7.6 -- (--) -- (--) 0.2 0 0.2 0 0
10-04-2019 12.5 (15:50) 2.4 (00:00) 7.5 -- (--) -- (--) 5.6 0.1 2.2 2.2 1.1
09-04-2019 10 (16:40) 3.3 (00:00) 6.6 -- (--) -- (--) 11.6 6.8 0 4 0.8
08-04-2019 15.2 (18:00) 4.7 (00:00) 9.9 -- (--) -- (--) 7 2.4 3.9 0.7 0
07-04-2019 12.2 (16:30) 2.6 (00:00) 7.4 -- (--) -- (--) 1.7 0.4 0.8 0 0.5
06-04-2019 8.4 (18:20) 1.9 (00:00) 5.1 -- (--) -- (--) 11.1 1.8 0.2 4.5 4.6
05-04-2019 7.6 (04:50) 1.3 (00:00) 4.4 -- (--) -- (--) 20 0 1.6 13.4 5
04-04-2019 13.8 (17:30) -1.9 (-00:0) 6 -- (--) -- (--) 0 0 0 0 0
03-04-2019 14.8 (13:50) 3.3 (00:00) 9.1 -- (--) -- (--) 0.1 0 0.1 0 0
02-04-2019 18.2 (15:00) 5.8 (00:00) 12 -- (--) -- (--) 8 3.2 0 3.3 1.5
01-04-2019 13.1 (14:20) 6.5 (00:00) 9.8 -- (--) -- (--) 8.7 0.7 3.1 3.1 1.8
31-03-2019 10.2 (13:30) 5 (00:00) 7.6 -- (--) -- (--) 7.5 0 0.5 6.4 0.6
30-03-2019 20.5 (15:50) -1.3 (-00:0) 9.6 -- (--) -- (--) 0 0 0 0 0
29-03-2019 19.1 (15:30) -1.5 (-00:0) 8.8 -- (--) -- (--) 0 0 0 0 0
28-03-2019 20.8 (17:00) -1.6 (-00:0) 9.6 -- (--) -- (--) 0 0 0 0 0
27-03-2019 20 (15:20) -2.3 (-00:0) 8.9 -- (--) -- (--) 0 0 0 0 0
26-03-2019 20.9 (14:10) -0.1 (00:00) 10.4 -- (--) -- (--) 0 0 0 0 0
25-03-2019 21.8 (15:20) -0.1 (00:00) 10.8 -- (--) -- (--) 0 0 0 0 0

Gráficas

Temp. máximas Temp. mínimas Temp. medias Precipitaciones Rachas de viento máximas Velocidades máximas media en intervalos de 10 minutos

Datos horarios

Fecha y hora oficial Temperatura (ºC) Velocidad del viento (km/h) Dirección del viento Racha (km/h) Dirección de racha Precipitación (mm) Presión (hPa) Tendencia (hPa) Humedad (%)
2019-04-23 23:00:00 6.3 -- -- -- -- 0 896.8 2.6 99
2019-04-23 22:00:00 6 -- -- -- -- 0 896.3 2.9 99
2019-04-23 21:00:00 5.7 -- -- -- -- 0.7 895.3 1.8 99
2019-04-23 20:00:00 7.1 -- -- -- -- 0.4 894.2 0.6 99
2019-04-23 19:00:00 11.9 -- -- -- -- 0.1 893.4 0.6 83
2019-04-23 18:00:00 8.7 -- -- -- -- 0 893.5 0.5 99
2019-04-23 17:00:00 8.5 -- -- -- -- 0.6 893.6 0 99
2019-04-23 16:00:00 11.4 -- -- -- -- 0 892.8 -1.3 99
2019-04-23 15:00:00 10.8 -- -- -- -- 0.2 893 -0.6 99
2019-04-23 14:00:00 9.2 -- -- -- -- 0.8 893.6 0.6 99
2019-04-23 13:00:00 8.5 -- -- -- -- 2.6 894.1 1.4 99
2019-04-23 12:00:00 9.1 -- -- -- -- 1 893.6 0.8 99
2019-04-23 11:00:00 10.9 -- -- -- -- 0 893 0.4 99
2019-04-23 10:00:00 10 -- -- -- -- 0 892.7 0.1 99
2019-04-23 09:00:00 8.7 -- -- -- -- 0 892.8 -0.3 99
2019-04-23 08:00:00 6.4 -- -- -- -- 0 892.6 -0.8 99
2019-04-23 07:00:00 6.6 -- -- -- -- 0 892.6 -1.1 99
2019-04-23 06:00:00 6.8 -- -- -- -- 0 893.1 -1 99
2019-04-23 05:00:00 6.7 -- -- -- -- 0 893.4 -1.5 99
2019-04-23 04:00:00 7.1 -- -- -- -- 0.1 893.7 -1.3 99
2019-04-23 03:00:00 7.8 -- -- -- -- 0.2 894.1 -1.4 99
2019-04-23 02:00:00 7.4 -- -- -- -- 0.2 894.9 -0.6 99
2019-04-23 01:00:00 7.1 -- -- -- -- 0 895 -0.3 99
2019-04-23 00:00:00 7.4 -- -- -- -- 0 895.5 0.5 99
2019-04-22 23:00:00 7.8 -- -- -- -- 0 895.5 0.5 99
2019-04-22 22:00:00 9.3 -- -- -- -- 0 895.3 0.5 99
2019-04-22 21:00:00 12.1 -- -- -- -- 0 895 0.2 99
2019-04-22 20:00:00 13.5 -- -- -- -- 0 895 -0.3 85
2019-04-22 19:00:00 14.3 -- -- -- -- 0 894.8 -1 81
2019-04-22 18:00:00 14 -- -- -- -- 0 894.8 -1.3 79
2019-04-22 17:00:00 14.2 -- -- -- -- 0 895.3 -0.7 78
2019-04-22 16:00:00 13.6 -- -- -- -- 0 895.8 -1 83
2019-04-22 15:00:00 13.4 -- -- -- -- 0 896.1 -1.1 83
2019-04-22 14:00:00 14.1 -- -- -- -- 0 896 -1.6 77
2019-04-22 13:00:00 15 -- -- -- -- 0 896.8 -1.1 76
2019-04-22 12:00:00 13.8 -- -- -- -- 0 897.2 -1 78
2019-04-22 11:00:00 12.3 -- -- -- -- 0 897.6 -0.7 91
2019-04-22 10:00:00 10.8 -- -- -- -- 0 897.9 -0.3 99
2019-04-22 09:00:00 7.9 -- -- -- -- 0 898.2 -0.4 99
2019-04-22 08:00:00 7.5 -- -- -- -- 0 898.3 -0.9 99
2019-04-22 07:00:00 7.8 -- -- -- -- 0 898.2 -1.9 99
2019-04-22 06:00:00 7.8 -- -- -- -- 0 898.6 -2.4 99
2019-04-22 05:00:00 7.8 -- -- -- -- 0 899.2 -2.6 99
2019-04-22 04:00:00 7.9 -- -- -- -- 0 900.1 -1.9 99
2019-04-22 03:00:00 8 -- -- -- -- 0.1 901 -1.3 99
2019-04-22 02:00:00 8.6 -- -- -- -- 0 901.8 -0.7 99
2019-04-22 01:00:00 9 -- -- -- -- 0 902 -0.8 99
2019-04-22 00:00:00 8.9 -- -- -- -- 0 902.3 -0.4 99
2019-04-21 23:00:00 9 -- -- -- -- 0 902.5 0.1 99
2019-04-21 22:00:00 8.9 -- -- -- -- 0 902.8 -0.1 99
2019-04-21 21:00:00 9.1 -- -- -- -- 0 902.7 -0.5 99
2019-04-21 20:00:00 9.3 -- -- -- -- 0.1 902.4 -1.2 99
2019-04-21 19:00:00 9.4 -- -- -- -- 0 902.9 -0.9 99
2019-04-21 18:00:00 9.9 -- -- -- -- 0 903.2 -1.4 99
2019-04-21 17:00:00 10 -- -- -- -- 0 903.6 -1.2 97
2019-04-21 16:00:00 11.2 -- -- -- -- 0 903.8 -1.7 98
2019-04-21 15:00:00 9.6 -- -- -- -- 0 904.6 -1.2 99
2019-04-21 14:00:00 9.1 -- -- -- -- 0 904.8 -0.9 99
2019-04-21 13:00:00 8.9 -- -- -- -- 0 905.5 -1 99
2019-04-21 12:00:00 8.7 -- -- -- -- 0 905.8 -0.7 99
2019-04-21 11:00:00 8.4 -- -- -- -- 0 905.7 -1.1 99
2019-04-21 10:00:00 7.8 -- -- -- -- 0 906.5 -0.3 99
2019-04-21 09:00:00 7.6 -- -- -- -- 0 906.5 -0.6 99
2019-04-21 08:00:00 6.8 -- -- -- -- 0 906.8 -1 99
2019-04-21 07:00:00 6.4 -- -- -- -- 0 906.8 -1.6 99
2019-04-21 06:00:00 6.2 -- -- -- -- 0 907.1 -2.2 99
2019-04-21 05:00:00 5.7 -- -- -- -- 0 907.8 -2.4 99
2019-04-21 04:00:00 5.2 -- -- -- -- 0 908.4 -2.6 99
2019-04-21 03:00:00 5 -- -- -- -- 0.1 909.3 -2.2 99
2019-04-21 02:00:00 6.3 -- -- -- -- 0.3 910.2 -1.3 99
2019-04-21 01:00:00 6.6 -- -- -- -- 0.4 911 -0.1 99
2019-04-21 00:00:00 6.9 -- -- -- -- 0.6 911.5 0.7 99
2019-04-20 23:00:00 7.3 -- -- -- -- 0.7 911.5 0.9 99
2019-04-20 22:00:00 8.4 -- -- -- -- 0 911.1 1 99
2019-04-20 21:00:00 8.6 -- -- -- -- 0 910.8 1 95
2019-04-20 20:00:00 9.9 -- -- -- -- 0 910.6 0.9 86
2019-04-20 19:00:00 11.3 -- -- -- -- 0 910.1 0.3 81
2019-04-20 18:00:00 12.3 -- -- -- -- 0 909.8 -0.1 76
2019-04-20 17:00:00 12.6 -- -- -- -- 0 909.7 -0.5 75
2019-04-20 16:00:00 12.9 -- -- -- -- 0 909.8 -0.8 75
2019-04-20 15:00:00 13.7 -- -- -- -- 0 909.9 -0.8 74
2019-04-20 14:00:00 14.3 -- -- -- -- 0 910.2 -0.7 75
2019-04-20 13:00:00 14.7 -- -- -- -- 0 910.6 -0.4 73
2019-04-20 12:00:00 15.7 -- -- -- -- 0 910.7 -0.3 74
2019-04-20 11:00:00 13.5 -- -- -- -- 0 910.9 0.2 83
2019-04-20 10:00:00 12.1 -- -- -- -- 0 911 0.3 88
2019-04-20 09:00:00 11.4 -- -- -- -- 0 911 0.6 90
2019-04-20 08:00:00 10.2 -- -- -- -- 0 910.7 0.3 96
2019-04-20 07:00:00 9.8 -- -- -- -- 0 910.7 0 99
2019-04-20 06:00:00 10 -- -- -- -- 0 910.4 -1.5 98
2019-04-20 05:00:00 10 -- -- -- -- 0 910.4 -2.3 98
2019-04-20 04:00:00 9.3 -- -- -- -- 0 910.7 -1.7 99
2019-04-20 03:00:00 9.4 -- -- -- -- 0 911.9 -0.3 99
2019-04-20 02:00:00 10.3 -- -- -- -- 0 912.7 0.4 97
2019-04-20 01:00:00 10.4 -- -- -- -- 0 912.4 0.3 98
2019-04-20 00:00:00 10.4 -- -- -- -- 0 912.2 1.4 99
2019-04-19 23:00:00 8.5 -- -- -- -- 0 912.3 2.2 99
2019-04-19 22:00:00 10.4 -- -- -- -- 0 912.1 2.2 96
2019-04-19 21:00:00 11.2 -- -- -- -- 0 910.8 2 96
2019-04-19 20:00:00 12.5 -- -- -- -- 0 910.1 1.1 95
2019-04-19 19:00:00 11.9 -- -- -- -- 0 909.9 0 99
2019-04-19 18:00:00 11.1 -- -- -- -- 0 908.8 -1.3 99
2019-04-19 17:00:00 8.2 -- -- -- -- 0.2 909 -1.3 99
2019-04-19 16:00:00 8.1 -- -- -- -- 0.4 909.9 -0.8 99
2019-04-19 15:00:00 8.2 -- -- -- -- 0.4 910.1 -0.2 99
2019-04-19 14:00:00 8.6 -- -- -- -- 1.5 910.3 0 99
2019-04-19 13:00:00 8.1 -- -- -- -- 1.9 910.7 0.7 99
2019-04-19 12:00:00 8.3 -- -- -- -- 2 910.3 0.8 99
2019-04-19 11:00:00 7.9 -- -- -- -- 2.7 910.3 1.2 99
2019-04-19 10:00:00 7.5 -- -- -- -- 3.1 910 1.9 99
2019-04-19 09:00:00 7.5 -- -- -- -- 2.1 909.5 1.4 99
2019-04-19 08:00:00 7.2 -- -- -- -- 1 909.1 1.3 99
2019-04-19 07:00:00 6.8 -- -- -- -- 0 908.1 0.8 99
2019-04-19 06:00:00 6.8 -- -- -- -- 0.1 908.1 0.4 99
2019-04-19 05:00:00 6.7 -- -- -- -- 0 907.8 -0.1 99
2019-04-19 04:00:00 6.9 -- -- -- -- 0 907.3 -0.3 99
2019-04-19 03:00:00 7 -- -- -- -- 0.1 907.7 0.5 99
2019-04-19 02:00:00 7 -- -- -- -- 0.1 907.9 0.4 99
2019-04-19 01:00:00 7 -- -- -- -- 2.2 907.6 0.5 99
2019-04-19 00:00:00 7.2 -- -- -- -- 3.5 907.2 1 99
2019-04-18 23:00:00 7.3 -- -- -- -- 1.8 907.5 1 99
2019-04-18 22:00:00 7.7 -- -- -- -- 3 907.1 1.1 99
2019-04-18 21:00:00 8.2 -- -- -- -- 2.2 906.2 0.2 99
2019-04-18 20:00:00 8.3 -- -- -- -- 3.4 906.5 0.4 99
2019-04-18 19:00:00 8.6 -- -- -- -- 0.9 906 -0.7 99
2019-04-18 18:00:00 8.3 -- -- -- -- 3.1 906 -0.7 99
2019-04-18 17:00:00 8.8 -- -- -- -- 2.3 906.1 -0.4 99
2019-04-18 16:00:00 8.9 -- -- -- -- 4.5 906.7 0.1 99
2019-04-18 15:00:00 10.1 -- -- -- -- 4.2 906.7 -0.2 99
2019-04-18 14:00:00 11.1 -- -- -- -- 0.2 906.5 -0.9 99
2019-04-18 13:00:00 11.5 -- -- -- -- 0 906.6 0.6 99
2019-04-18 12:00:00 11.7 -- -- -- -- 0 906.9 -1.1 99
2019-04-18 11:00:00 10.6 -- -- -- -- 0 907.4 -0.6 99
2019-04-18 10:00:00 10.1 -- -- -- -- 0.6 906 -1.7 99
2019-04-18 09:00:00 9.3 -- -- -- -- 2.9 908 0.7 99
2019-04-18 08:00:00 9.5 -- -- -- -- 5 908 0.6 99
2019-04-18 07:00:00 10.3 -- -- -- -- 0.3 907.7 -0.4 99
2019-04-18 06:00:00 11.4 -- -- -- -- 0 907.3 -0.7 99
2019-04-18 05:00:00 11.7 -- -- -- -- 0 907.4 -0.9 99
2019-04-18 04:00:00 12.2 -- -- -- -- 0 908.1 0.3 95
2019-04-18 03:00:00 13.4 -- -- -- -- 0 908 0 89
2019-04-18 02:00:00 14.2 -- -- -- -- 0 908.3 0.9 80
2019-04-18 01:00:00 14.6 -- -- -- -- 0 907.8 0.6 78
2019-04-18 00:00:00 15.1 -- -- -- -- 0 908 2.9 77
2019-04-17 23:00:00 16.3 -- -- -- -- 0 907.4 2.7 69
2019-04-17 22:00:00 17.6 -- -- -- -- 0 907.2 2.8 62
2019-04-17 21:00:00 17.8 -- -- -- -- 0 905.1 0.7 58
2019-04-17 20:00:00 20.3 -- -- -- -- 0 904.7 0 48
2019-04-17 19:00:00 22.4 -- -- -- -- 0 904.4 -1.5 46
2019-04-17 18:00:00 24 -- -- -- -- 0 904.4 -2.3 41
2019-04-17 17:00:00 23.2 -- -- -- -- 0 904.7 -2.4 41
2019-04-17 16:00:00 23.3 -- -- -- -- 0 905.9 -1 40
2019-04-17 15:00:00 23.4 -- -- -- -- 0 906.7 -0.6 44
2019-04-17 14:00:00 23.1 -- -- -- -- 0 907.1 -0.7 51
2019-04-17 13:00:00 21.9 -- -- -- -- 0 906.9 -1.8 47
2019-04-17 12:00:00 21.6 -- -- -- -- 0 907.3 -1.7 52
2019-04-17 11:00:00 18.6 -- -- -- -- 0 907.8 -1.3 63
2019-04-17 10:00:00 10.4 -- -- -- -- 0 908.7 -0.2 99
2019-04-17 09:00:00 7.8 -- -- -- -- 0 909 0 99
2019-04-17 08:00:00 6.7 -- -- -- -- 0 909.1 0.1 99
2019-04-17 07:00:00 7 -- -- -- -- 0 908.9 -0.8 99
2019-04-17 06:00:00 7.2 -- -- -- -- 0 909 -1.4 99
2019-04-17 05:00:00 7 -- -- -- -- 0 909 -1.5 99
2019-04-17 04:00:00 7.3 -- -- -- -- 0 909.7 -0.9 99
2019-04-17 03:00:00 6.6 -- -- -- -- 0 910.4 -0.1 99
2019-04-17 02:00:00 6.8 -- -- -- -- 0 910.5 0 99
2019-04-17 01:00:00 7.3 -- -- -- -- 0 910.6 0.5 99
2019-04-17 00:00:00 7.6 -- -- -- -- 0 910.5 0.9 99
2019-04-16 23:00:00 9.2 -- -- -- -- 0 910.5 1.4 98
2019-04-16 22:00:00 11.1 -- -- -- -- 0 910.1 1 89
2019-04-16 21:00:00 13.4 -- -- -- -- 0 909.6 0.1 78
2019-04-16 20:00:00 18.7 -- -- -- -- 0 909.1 -0.9 51
2019-04-16 19:00:00 21.1 -- -- -- -- 0 909.1 -1 43
2019-04-16 18:00:00 22.3 -- -- -- -- 0 909.5 -1.1 45
2019-04-16 17:00:00 22.7 -- -- -- -- 0 910 -1.4 43
2019-04-16 16:00:00 22.1 -- -- -- -- 0 910.1 -1.6 48
2019-04-16 15:00:00 19.6 -- -- -- -- 0 910.6 -1.4 52
2019-04-16 14:00:00 18 -- -- -- -- 0 911.4 -0.9 53
2019-04-16 13:00:00 16.6 -- -- -- -- 0 911.7 -0.8 56
2019-04-16 12:00:00 16.7 -- -- -- -- 0 912 -0.5 64
2019-04-16 11:00:00 15 -- -- -- -- 0 912.3 0 77
2019-04-16 10:00:00 10.1 -- -- -- -- 0 912.5 0.6 99
2019-04-16 09:00:00 5.1 -- -- -- -- 0 912.5 1 99
2019-04-16 08:00:00 4.3 -- -- -- -- 0 912.3 1 99
2019-04-16 07:00:00 4.4 -- -- -- -- 0 911.9 1.2 99
2019-04-16 06:00:00 5.1 -- -- -- -- 0 911.5 0.7 99
2019-04-16 05:00:00 5.9 -- -- -- -- 0 911.3 0.7 99
2019-04-16 04:00:00 7.1 -- -- -- -- 0 910.7 0.3 99
2019-04-16 03:00:00 9.3 -- -- -- -- 0 910.8 1.2 99
2019-04-16 02:00:00 10.3 -- -- -- -- 0 910.6 1.9 92
2019-04-16 01:00:00 13.1 -- -- -- -- 0 910.4 3.1 88
2019-04-16 00:00:00 13.9 -- -- -- -- 0 909.6 3 83
2019-04-15 23:00:00 14.2 -- -- -- -- 0 908.7 3.3 70
2019-04-15 22:00:00 15.1 -- -- -- -- 0 907.3 2.3 64
2019-04-15 21:00:00 18.6 -- -- -- -- 0 906.6 1.5 53
2019-04-15 20:00:00 20.7 -- -- -- -- 0 905.4 -0.3 50
2019-04-15 19:00:00 21.7 -- -- -- -- 0 905 -1.1 49
2019-04-15 18:00:00 21.8 -- -- -- -- 0 905.1 -1.3 55
2019-04-15 17:00:00 22.4 -- -- -- -- 0 905.7 -1.3 58
2019-04-15 16:00:00 21.7 -- -- -- -- 0 906.1 -1.5 59
2019-04-15 15:00:00 21.8 -- -- -- -- 0 906.4 -1.5 61
2019-04-15 14:00:00 21.1 -- -- -- -- 0 907 -1.4 66
2019-04-15 13:00:00 20.9 -- -- -- -- 0 907.6 -1.1 68
2019-04-15 12:00:00 19.6 -- -- -- -- 0 907.9 -1.5 75
2019-04-15 11:00:00 15.9 -- -- -- -- 0 908.4 -0.9 92
2019-04-15 10:00:00 12.9 -- -- -- -- 0 908.7 -0.3 99
2019-04-15 09:00:00 8.2 -- -- -- -- 0 909.4 0.1 99
2019-04-15 08:00:00 7.1 -- -- -- -- 0 909.3 -0.7 99
2019-04-15 07:00:00 6.9 -- -- -- -- 0 909 -1.5 99
2019-04-15 06:00:00 6.7 -- -- -- -- 0 909.3 -1.3 99
2019-04-15 05:00:00 7.3 -- -- -- -- 0 910 -0.9 99
2019-04-15 04:00:00 7.8 -- -- -- -- 0 910.5 -0.6 99
2019-04-15 03:00:00 7.5 -- -- -- -- 0 910.6 -0.6 99
2019-04-15 02:00:00 8.3 -- -- -- -- 0 910.9 0 99
2019-04-15 01:00:00 9 -- -- -- -- 0 911.1 0.4 99
2019-04-15 00:00:00 9.9 -- -- -- -- 0 911.2 1.3 99
2019-04-14 23:00:00 11.2 -- -- -- -- 0 910.9 1.4 99
2019-04-14 22:00:00 12.7 -- -- -- -- 0 910.7 1.5 99
2019-04-14 21:00:00 14.8 -- -- -- -- 0 909.9 0.8 92
2019-04-14 20:00:00 20 -- -- -- -- 0 909.5 0 63
2019-04-14 19:00:00 22.2 -- -- -- -- 0 909.2 -0.9 55
2019-04-14 18:00:00 22.5 -- -- -- -- 0 909.1 -1.3 53
2019-04-14 17:00:00 23 -- -- -- -- 0 909.5 -1.4 55
2019-04-14 16:00:00 21.5 -- -- -- -- 0 910.1 -0.8 56
2019-04-14 15:00:00 22 -- -- -- -- 0 910.4 -1.1 58
2019-04-14 14:00:00 19.7 -- -- -- -- 0 910.9 -0.8 64
2019-04-14 13:00:00 18.1 -- -- -- -- 0 910.9 -1.3 68
2019-04-14 12:00:00 17.9 -- -- -- -- 0 911.5 -0.5 65
2019-04-14 11:00:00 14 -- -- -- -- 0 911.7 -0.7 64
2019-04-14 10:00:00 8.1 -- -- -- -- 0 912.2 0 89
2019-04-14 09:00:00 3.7 -- -- -- -- 0 912 -0.1 99
2019-04-14 08:00:00 1.8 -- -- -- -- 0 912.4 0 99
2019-04-14 07:00:00 1.9 -- -- -- -- 0 912.2 0 99
2019-04-14 06:00:00 1.7 -- -- -- -- 0 912.1 -0.4 99
2019-04-14 05:00:00 1.8 -- -- -- -- 0 912.4 -0.5 99
2019-04-14 04:00:00 1.8 -- -- -- -- 0 912.2 -0.8 99
2019-04-14 03:00:00 2.6 -- -- -- -- 0 912.5 -0.4 99
2019-04-14 02:00:00 3.2 -- -- -- -- 0 912.9 0.3 99
2019-04-14 01:00:00 4.1 -- -- -- -- 0 913 0.9 99
2019-04-14 00:00:00 5 -- -- -- -- 0 912.9 1.6 97
2019-04-13 23:00:00 6.3 -- -- -- -- 0 912.6 2.1 95
2019-04-13 22:00:00 7.9 -- -- -- -- 0 912.1 2 89
2019-04-13 21:00:00 10.8 -- -- -- -- 0 911.3 1.2 67
2019-04-13 20:00:00 17.8 -- -- -- -- 0 910.5 0.4 30
2019-04-13 19:00:00 21.3 -- -- -- -- 0 910.1 -0.3 26
2019-04-13 18:00:00 21 -- -- -- -- 0 910.1 -0.7 25
2019-04-13 17:00:00 20.4 -- -- -- -- 0 910.1 -1 26
2019-04-13 16:00:00 19.9 -- -- -- -- 0 910.4 -1 26
2019-04-13 15:00:00 19.5 -- -- -- -- 0 910.8 -1.4 30
2019-04-13 14:00:00 18.5 -- -- -- -- 0 911.1 -1.5 29
2019-04-13 13:00:00 17.9 -- -- -- -- 0 911.4 -1.4 31
2019-04-13 12:00:00 15.7 -- -- -- -- 0 912.2 -0.9 37
2019-04-13 11:00:00 12.3 -- -- -- -- 0 912.6 0.1 60
2019-04-13 10:00:00 2.3 -- -- -- -- 0 912.8 0.3 99
2019-04-13 09:00:00 -0.8 -- -- -- -- 0 913.1 1.1 99
2019-04-13 08:00:00 -1.2 -- -- -- -- 0 912.5 0.5 99
2019-04-13 07:00:00 -1.1 -- -- -- -- 0 912.5 0.5 99
2019-04-13 06:00:00 -0.8 -- -- -- -- 0 912 -0.4 99
2019-04-13 05:00:00 -0.3 -- -- -- -- 0 912 -0.4 99
2019-04-13 04:00:00 0.5 -- -- -- -- 0 912 -0.2 99
2019-04-13 03:00:00 1 -- -- -- -- 0 912.4 0.5 99
2019-04-13 02:00:00 2 -- -- -- -- 0 912.4 1 99
2019-04-13 01:00:00 3.1 -- -- -- -- 0 912.2 1.6 99
2019-04-13 00:00:00 4.2 -- -- -- -- 0 911.9 2 99
2019-04-12 23:00:00 5.4 -- -- -- -- 0 911.4 2.1 99
2019-04-12 22:00:00 7 -- -- -- -- 0 910.6 1.4 97
2019-04-12 21:00:00 9.1 -- -- -- -- 0 909.9 0.7 85
2019-04-12 20:00:00 14.4 -- -- -- -- 0 909.3 0 48
2019-04-12 19:00:00 17.3 -- -- -- -- 0 909.2 -0.9 42
2019-04-12 18:00:00 16.6 -- -- -- -- 0 909.2 -1.1 46
2019-04-12 17:00:00 16 -- -- -- -- 0 909.3 -1 49
2019-04-12 16:00:00 15.9 -- -- -- -- 0 910.1 -0.9 52
2019-04-12 15:00:00 15.7 -- -- -- -- 0 910.3 -1.1 56
2019-04-12 14:00:00 13.4 -- -- -- -- 0 910.3 -1 61
2019-04-12 13:00:00 11.4 -- -- -- -- 0 911 -0.4 65
2019-04-12 12:00:00 10.8 -- -- -- -- 0 911.4 -0.1 72
2019-04-12 11:00:00 10.4 -- -- -- -- 0 911.3 0 83
2019-04-12 10:00:00 3.8 -- -- -- -- 0 911.4 0.2 99
2019-04-12 09:00:00 0.3 -- -- -- -- 0 911.5 0.2 99
2019-04-12 08:00:00 -0.1 -- -- -- -- 0 911.3 0.1 99
2019-04-12 07:00:00 -0.1 -- -- -- -- 0 911.2 -0.2 99
2019-04-12 06:00:00 0.1 -- -- -- -- 0 911.3 -0.4 99
2019-04-12 05:00:00 1 -- -- -- -- 0 911.2 -0.9 99
2019-04-12 04:00:00 1.7 -- -- -- -- 0 911.4 -0.3 99
2019-04-12 03:00:00 2.7 -- -- -- -- 0 911.7 -0.2 99
2019-04-12 02:00:00 5.1 -- -- -- -- 0 912.1 0.4 99
2019-04-12 01:00:00 6.3 -- -- -- -- 0 911.7 0.5 98
2019-04-12 00:00:00 7 -- -- -- -- 0 911.9 1.5 99
2019-04-11 23:00:00 6 -- -- -- -- 0 911.7 1.7 99
2019-04-11 22:00:00 8.4 -- -- -- -- 0 911.2 -- 98
2019-04-11 21:00:00 9.4 -- -- -- -- 0 910.4 0.8 86
2019-04-11 20:00:00 10.9 -- -- -- -- 0 910 0.7 69
2019-04-11 19:00:00 -- -- -- -- -- 0 -- -- --
2019-04-11 18:00:00 13.6 -- -- -- -- 0 909.6 -0.5 56
2019-04-11 17:00:00 13.8 -- -- -- -- 0 909.3 -0.8 54
2019-04-11 16:00:00 13.3 -- -- -- -- 0 909.7 -0.9 54
2019-04-11 15:00:00 12.5 -- -- -- -- 0 910.1 -0.9 59
2019-04-11 14:00:00 11.9 -- -- -- -- 0 910.1 -1.2 60
2019-04-11 13:00:00 11.7 -- -- -- -- 0 910.6 -0.5 66
2019-04-11 12:00:00 10.5 -- -- -- -- 0 911 0.3 77
2019-04-11 11:00:00 9.2 -- -- -- -- 0 911.3 0.7 89
2019-04-11 10:00:00 5.4 -- -- -- -- 0.2 911.1 1 99
2019-04-11 09:00:00 1.2 -- -- -- -- 0 910.7 0.6 99
2019-04-11 08:00:00 0.9 -- -- -- -- 0 910.6 0.6 99
2019-04-11 07:00:00 0.6 -- -- -- -- 0 910.1 0.3 99
2019-04-11 06:00:00 0.6 -- -- -- -- 0 910.1 0.1 99
2019-04-11 05:00:00 0.8 -- -- -- -- 0 910 -0.2 99
2019-04-11 04:00:00 0.9 -- -- -- -- 0 909.8 -0.2 99
2019-04-11 03:00:00 1 -- -- -- -- 0 910 0.3 99
2019-04-11 02:00:00 1.6 -- -- -- -- 0 910.2 0.8 99
2019-04-11 01:00:00 2.1 -- -- -- -- 0 910 0.9 99
2019-04-11 00:00:00 3 -- -- -- -- 0 909.7 2 99
2019-04-10 23:00:00 3.7 -- -- -- -- 0 909.4 2.1 99
2019-04-10 22:00:00 5 -- -- -- -- 0 909.1 2.4 99
2019-04-10 21:00:00 6.6 -- -- -- -- 0.1 907.7 0.8 99
2019-04-10 20:00:00 7 -- -- -- -- 1 907.3 1 99
2019-04-10 19:00:00 10.7 -- -- -- -- 0 906.7 0.2 98
2019-04-10 18:00:00 7.2 -- -- -- -- 1.1 906.9 0.1 99
2019-04-10 17:00:00 9.1 -- -- -- -- 0.1 906.3 -0.8 91
2019-04-10 16:00:00 8.5 -- -- -- -- 0.7 906.5 0.1 97
2019-04-10 15:00:00 8 -- -- -- -- 0 906.8 -0.1 99
2019-04-10 14:00:00 8.2 -- -- -- -- 0 907.1 -0.2 89
2019-04-10 13:00:00 10.6 -- -- -- -- 0.3 906.4 -0.5 89
2019-04-10 12:00:00 8.8 -- -- -- -- 0 906.9 0.1 92
2019-04-10 11:00:00 7.1 -- -- -- -- 0 907.3 0.9 99
2019-04-10 10:00:00 5.3 -- -- -- -- 0 906.9 0.8 99
2019-04-10 09:00:00 4.6 -- -- -- -- 0.7 906.8 0.6 99
2019-04-10 08:00:00 3.9 -- -- -- -- -- 906.4 0.1 99
2019-04-10 07:00:00 3.7 -- -- -- -- 1.3 906.1 -0.2 99
2019-04-10 06:00:00 3.4 -- -- -- -- 0 906.2 -0.4 99
2019-04-10 05:00:00 3.1 -- -- -- -- 0.1 906.3 -0.7 99
2019-04-10 04:00:00 3.1 -- -- -- -- 0 906.3 -0.6 99
2019-04-10 03:00:00 2.7 -- -- -- -- 0 906.6 -0.2 99
2019-04-10 02:00:00 2.4 -- -- -- -- 0 907 0.1 99
2019-04-10 01:00:00 2.7 -- -- -- -- 0 906.9 0.6 99
2019-04-10 00:00:00 3.7 -- -- -- -- 0 906.8 0.8 99
2019-04-09 23:00:00 4.9 -- -- -- -- 0.7 906.9 1.3 99
2019-04-09 22:00:00 4.5 -- -- -- -- 0 906.3 1.1 99
2019-04-09 21:00:00 5.5 -- -- -- -- 0 906 1 99
2019-04-09 20:00:00 8 -- -- -- -- 0 905.6 1.2 99
2019-04-09 19:00:00 6.8 -- -- -- -- 0.1 905.2 0 99
2019-04-09 18:00:00 6.7 -- -- -- -- 0.1 905 -0.4 99
2019-04-09 17:00:00 8.4 -- -- -- -- 1 904.4 -2.1 99
2019-04-09 16:00:00 6.5 -- -- -- -- 0.2 905.2 -1.2 99
2019-04-09 15:00:00 7.5 -- -- -- -- 1.9 905.4 -1.6 99
2019-04-09 14:00:00 6.4 -- -- -- -- 0.8 906.5 -0.5 99
2019-04-09 13:00:00 8.3 -- -- -- -- 0 906.4 -0.6 99
2019-04-09 12:00:00 6.9 -- -- -- -- 0 907 -0.3 99
2019-04-09 11:00:00 6.2 -- -- -- -- 0 907 0.2 99
2019-04-09 10:00:00 5.2 -- -- -- -- 0 907 0.3 99
2019-04-09 09:00:00 5.1 -- -- -- -- 0 907.3 0.5 99
2019-04-09 08:00:00 4.5 -- -- -- -- 0 906.8 -0.1 99
2019-04-09 07:00:00 4.1 -- -- -- -- 0 906.7 -0.2 99
2019-04-09 06:00:00 3.8 -- -- -- -- 0 906.8 -0.2 99
2019-04-09 05:00:00 3.6 -- -- -- -- 0 906.9 -0.8 99
2019-04-09 04:00:00 4.1 -- -- -- -- 0 906.9 0.2 99
2019-04-09 03:00:00 4.7 -- -- -- -- 1.3 907 0.7 99
2019-04-09 02:00:00 4.8 -- -- -- -- 4.7 907.7 1.5 99
2019-04-09 01:00:00 4.6 -- -- -- -- 0.8 906.7 0.8 99
2019-04-09 00:00:00 4.7 -- -- -- -- 0 906.3 0.8 99
2019-04-08 23:00:00 5.6 -- -- -- -- 0 906.2 1.2 99
2019-04-08 22:00:00 6.1 -- -- -- -- 0 905.9 0.7 99
2019-04-08 21:00:00 7.9 -- -- -- -- 0 905.5 0.2 99
2019-04-08 20:00:00 12.5 -- -- -- -- 0 905 -0.6 69
2019-04-08 19:00:00 13.6 -- -- -- -- 0 905.2 -0.8 68
2019-04-08 18:00:00 14.7 -- -- -- -- 0 905.3 -1.2 69
2019-04-08 17:00:00 13.9 -- -- -- -- 0 905.6 -1.1 77
2019-04-08 16:00:00 13.1 -- -- -- -- 0 906 -1 92
2019-04-08 15:00:00 11 -- -- -- -- 0 906.5 -0.6 99
2019-04-08 14:00:00 9.8 -- -- -- -- 0.4 906.7 -0.3 99
2019-04-08 13:00:00 9.2 -- -- -- -- 0.3 907 0.1 99
2019-04-08 12:00:00 8.9 -- -- -- -- 0.4 907.1 0.3 99
2019-04-08 11:00:00 8.5 -- -- -- -- 1.1 907 0.6 99
2019-04-08 10:00:00 7.9 -- -- -- -- 1.1 906.9 0.6 99
2019-04-08 09:00:00 7.1 -- -- -- -- 1.1 906.8 0.5 99
2019-04-08 08:00:00 6.7 -- -- -- -- 0.2 906.4 0.1 99
2019-04-08 07:00:00 6.5 -- -- -- -- 0 906.3 -0.1 99
2019-04-08 06:00:00 5.9 -- -- -- -- 0.3 906.3 -0.7 99
2019-04-08 05:00:00 5.7 -- -- -- -- 0.2 906.3 -1.1 99
2019-04-08 04:00:00 5.7 -- -- -- -- 0.2 906.4 -1.3 99
2019-04-08 03:00:00 5.7 -- -- -- -- 0 907 -0.8 99
2019-04-08 02:00:00 5.8 -- -- -- -- 0.7 907.4 -0.4 99
2019-04-08 01:00:00 5.9 -- -- -- -- 1 907.7 -0.1 99
2019-04-08 00:00:00 5.9 -- -- -- -- 0.3 907.8 0.6 99
2019-04-07 23:00:00 6.4 -- -- -- -- 0.2 907.8 1.5 99
2019-04-07 22:00:00 7.1 -- -- -- -- 0 907.8 1.8 99
2019-04-07 21:00:00 7.8 -- -- -- -- 0 907.2 1.8 97
2019-04-07 20:00:00 9.8 -- -- -- -- 0 906.3 1 69
2019-04-07 19:00:00 10.9 -- -- -- -- 0 906 0.9 66
2019-04-07 18:00:00 11.4 -- -- -- -- 0 905.4 0.2 66
2019-04-07 17:00:00 11.5 -- -- -- -- 0 905.3 0.2 65
2019-04-07 16:00:00 10.2 -- -- -- -- 0 905.1 0.1 68
2019-04-07 15:00:00 10.3 -- -- -- -- 0 905.2 0.5 73
2019-04-07 14:00:00 8 -- -- -- -- 0 905.1 1.2 86
2019-04-07 13:00:00 7.2 -- -- -- -- 0 905 1.7 99
2019-04-07 12:00:00 5.6 -- -- -- -- 0 904.7 2.2 99
2019-04-07 11:00:00 3.9 -- -- -- -- 0 903.9 2.3 99
2019-04-07 10:00:00 3.4 -- -- -- -- 0 903.3 2.6 99
2019-04-07 09:00:00 3.1 -- -- -- -- 0.4 902.5 2.4 99
2019-04-07 08:00:00 3.2 -- -- -- -- 0.2 901.6 1.6 99
2019-04-07 07:00:00 3.1 -- -- -- -- 0.2 900.7 0.9 99
2019-04-07 06:00:00 3.2 -- -- -- -- 0.4 900.1 0.2 99
2019-04-07 05:00:00 3.4 -- -- -- -- 0 900 0.4 99
2019-04-07 04:00:00 3.4 -- -- -- -- 0 899.8 0.3 99
2019-04-07 03:00:00 3.9 -- -- -- -- 0 899.9 0.7 99
2019-04-07 02:00:00 4.1 -- -- -- -- 0 899.6 0.6 99
2019-04-07 01:00:00 4 -- -- -- -- 0 899.5 0.8 99
2019-04-07 00:00:00 3.3 -- -- -- -- 0 899.2 1.1 99
2019-04-06 23:00:00 3.2 -- -- -- -- 0.1 899 0.7 99
2019-04-06 22:00:00 2.3 -- -- -- -- 0.2 898.7 2.2 99
2019-04-06 21:00:00 2.7 -- -- -- -- 1.1 898.1 2.2 99
2019-04-06 20:00:00 2.7 -- -- -- -- 3.2 898.3 2.2 99
2019-04-06 19:00:00 7 -- -- -- -- 0 896.5 -0.6 98
2019-04-06 18:00:00 6 -- -- -- -- 0.3 895.9 -1.4 99
2019-04-06 17:00:00 4.6 -- -- -- -- 0.5 896.1 -0.8 99
2019-04-06 16:00:00 4.7 -- -- -- -- 0.6 897.1 -0.2 99
2019-04-06 15:00:00 3.3 -- -- -- -- 2.5 897.3 -0.7 99
2019-04-06 14:00:00 6.3 -- -- -- -- 0.5 896.9 -1.1 99
2019-04-06 13:00:00 5 -- -- -- -- 0.1 897.3 -0.4 99
2019-04-06 12:00:00 4.3 -- -- -- -- 0 898 0.5 99
2019-04-06 11:00:00 3.8 -- -- -- -- 0 898 1.4 99
2019-04-06 10:00:00 3.4 -- -- -- -- 0 897.7 1.9 99
2019-04-06 09:00:00 2.9 -- -- -- -- 0 897.5 1.9 99
2019-04-06 08:00:00 3.4 -- -- -- -- 0 896.6 1.1 99
2019-04-06 07:00:00 3.2 -- -- -- -- 0.2 895.8 0 99
2019-04-06 06:00:00 3.5 -- -- -- -- 0.1 895.6 -0.5 99
2019-04-06 05:00:00 3.3 -- -- -- -- 0.2 895.5 -0.6 99
2019-04-06 04:00:00 3.1 -- -- -- -- 0.4 895.8 -0.3 99
2019-04-06 03:00:00 3 -- -- -- -- 0.5 896.1 0.2 99
2019-04-06 02:00:00 2.8 -- -- -- -- 0.4 896.1 0.4 99
2019-04-06 01:00:00 2.2 -- -- -- -- 0.2 896.1 0.8 99
2019-04-06 00:00:00 1.9 -- -- -- -- 0.3 895.9 1.4 99
2019-04-05 23:00:00 2 -- -- -- -- 0.9 895.7 1.7 99
2019-04-05 22:00:00 2 -- -- -- -- 0.7 895.3 2.9 99
2019-04-05 21:00:00 1.4 -- -- -- -- 0.7 894.5 1.9 99
2019-04-05 20:00:00 1.6 -- -- -- -- 1.8 894 0.3 99
2019-04-05 19:00:00 4.7 -- -- -- -- 0.6 892.4 -1.4 99
2019-04-05 18:00:00 4.3 -- -- -- -- 0.7 892.6 -1.3 99
2019-04-05 17:00:00 4.3 -- -- -- -- 3.7 893.7 -0.8 99
2019-04-05 16:00:00 4.9 -- -- -- -- 2.8 893.8 -0.8 99
2019-04-05 15:00:00 5.2 -- -- -- -- 2.7 893.9 -0.8 99
2019-04-05 14:00:00 5.5 -- -- -- -- 2.3 894.5 -0.4 99
2019-04-05 13:00:00 5.8 -- -- -- -- 1.2 894.6 -0.2 99
2019-04-05 12:00:00 6.4 -- -- -- -- 0.1 894.7 -0.2 99
2019-04-05 11:00:00 5.3 -- -- -- -- 0.4 894.9 -0.2 99
2019-04-05 10:00:00 4.9 -- -- -- -- 0.1 894.8 -0.4 99
2019-04-05 09:00:00 4.6 -- -- -- -- 0.2 894.9 -0.1 99
2019-04-05 08:00:00 4.2 -- -- -- -- 0.3 895.1 0.3 99
2019-04-05 07:00:00 4.3 -- -- -- -- 0.5 895.2 0.6 99
2019-04-05 06:00:00 5.6 -- -- -- -- 0 895 0.2 99
2019-04-05 05:00:00 7.2 -- -- -- -- 0 894.8 -0.1 92
2019-04-05 04:00:00 6.5 -- -- -- -- 0 894.6 -0.6 99
2019-04-05 03:00:00 4.1 -- -- -- -- 0 894.8 -0.8 99
2019-04-05 02:00:00 2.1 -- -- -- -- 0 894.9 -1.1 99
2019-04-05 01:00:00 1.5 -- -- -- -- 0 895.2 -1.1 99
2019-04-05 00:00:00 2.8 -- -- -- -- 0 895.6 -0.4 99
2019-04-04 23:00:00 3.1 -- -- -- -- 0 896 0.2 98
2019-04-04 22:00:00 3.8 -- -- -- -- 0 896.3 0.3 94
2019-04-04 21:00:00 5.9 -- -- -- -- 0 896 -0.2 77
2019-04-04 20:00:00 10 -- -- -- -- 0 895.8 -0.7 46
2019-04-04 19:00:00 12.3 -- -- -- -- 0 896 -1.3 45
2019-04-04 18:00:00 11.3 -- -- -- -- 0 896.2 -1.5 44
2019-04-04 17:00:00 12.7 -- -- -- -- 0 896.5 -1.7 46
2019-04-04 16:00:00 12.3 -- -- -- -- 0 897.3 -1.1 44
2019-04-04 15:00:00 12.4 -- -- -- -- 0 897.7 -0.9 51
2019-04-04 14:00:00 11.1 -- -- -- -- 0 898.2 -0.6 53
2019-04-04 13:00:00 10.3 -- -- -- -- 0 898.4 -0.7 54
2019-04-04 12:00:00 8.5 -- -- -- -- 0 898.6 -0.3 56
2019-04-04 11:00:00 6.7 -- -- -- -- 0 898.8 0.2 69
2019-04-04 10:00:00 0.7 -- -- -- -- 0 899.1 0.9 99
2019-04-04 09:00:00 -1.5 -- -- -- -- 0 898.9 1.1 99
2019-04-04 08:00:00 -1.7 -- -- -- -- 0 898.6 1.1 99
2019-04-04 07:00:00 -1.5 -- -- -- -- 0 898.2 0.2 99
2019-04-04 06:00:00 -1.1 -- -- -- -- 0 897.8 -0.4 99
2019-04-04 05:00:00 -0.6 -- -- -- -- 0 897.5 -1.2 99
2019-04-04 04:00:00 0 -- -- -- -- 0 898 -0.7 99
2019-04-04 03:00:00 1.5 -- -- -- -- 0 898.2 -0.8 99
2019-04-04 02:00:00 2 -- -- -- -- 0 898.7 -0.4 99
2019-04-04 01:00:00 3.2 -- -- -- -- 0 898.7 0.2 99
2019-04-04 00:00:00 3.5 -- -- -- -- 0 899 1.4 99
2019-04-03 23:00:00 3.9 -- -- -- -- 0 899.1 1.8 92
2019-04-03 22:00:00 6 -- -- -- -- 0 898.5 1 78
2019-04-03 21:00:00 7.8 -- -- -- -- 0 897.6 0.2 82
2019-04-03 20:00:00 9.8 -- -- -- -- 0 897.3 0 68
2019-04-03 19:00:00 10.4 -- -- -- -- 0 897.5 -0.1 67
2019-04-03 18:00:00 11.1 -- -- -- -- 0 897.4 -1 69
2019-04-03 17:00:00 11.7 -- -- -- -- 0 897.3 -1.6 74
2019-04-03 16:00:00 12.2 -- -- -- -- 0 897.6 -2.4 72
2019-04-03 15:00:00 12.5 -- -- -- -- 0 898.4 -2.5 71
2019-04-03 14:00:00 14.7 -- -- -- -- 0 898.9 -2.4 71
2019-04-03 13:00:00 11.9 -- -- -- -- 0 900 -1.8 82
2019-04-03 12:00:00 11.8 -- -- -- -- 0 900.9 -1.4 86
2019-04-03 11:00:00 10.5 -- -- -- -- 0 901.3 -1.3 99
2019-04-03 10:00:00 6.1 -- -- -- -- 0 901.8 -1.4 99
2019-04-03 09:00:00 4.6 -- -- -- -- 0 902.3 -1.5 99
2019-04-03 08:00:00 3.7 -- -- -- -- 0.1 902.6 -1.7 99
2019-04-03 07:00:00 3.8 -- -- -- -- 0 903.2 -2 99
2019-04-03 06:00:00 4 -- -- -- -- 0 903.8 -2.1 99
2019-04-03 05:00:00 4 -- -- -- -- 0 904.3 -2.3 99
2019-04-03 04:00:00 4.2 -- -- -- -- 0 905.2 -1.8 99
2019-04-03 03:00:00 4.1 -- -- -- -- 0 905.9 -1.5 99
2019-04-03 02:00:00 4 -- -- -- -- 0 906.6 -1.2 99
2019-04-03 01:00:00 5.2 -- -- -- -- 0 907 -0.3 99
2019-04-03 00:00:00 6.1 -- -- -- -- 0 907.4 0 99
2019-04-02 23:00:00 6.5 -- -- -- -- 0 907.8 0.5 99
2019-04-02 22:00:00 7.5 -- -- -- -- 0 907.3 0 99
2019-04-02 21:00:00 8.8 -- -- -- -- 0 907.4 -0.6 99
2019-04-02 20:00:00 9.4 -- -- -- -- 0 907.3 0.9 99
2019-04-02 19:00:00 9.9 -- -- -- -- 1.5 907.3 0.5 99
2019-04-02 18:00:00 9 -- -- -- -- 3.3 908 0.7 99
2019-04-02 17:00:00 16 -- -- -- -- 0 906.4 -1.8 62
2019-04-02 16:00:00 16.8 -- -- -- -- 0 906.8 -2.2 65
2019-04-02 15:00:00 15.5 -- -- -- -- 0 907.3 -2.1 69
2019-04-02 14:00:00 16.2 -- -- -- -- 0 908.2 -1.3 82
2019-04-02 13:00:00 14.4 -- -- -- -- 0 909 -0.3 87
2019-04-02 12:00:00 13.7 -- -- -- -- 0 909.4 0.1 96
2019-04-02 11:00:00 11.5 -- -- -- -- 0 909.5 0.5 99
2019-04-02 10:00:00 7.4 -- -- -- -- 0 909.3 0.3 99
2019-04-02 09:00:00 6.4 -- -- -- -- 0 909.3 -0.1 99
2019-04-02 08:00:00 6.1 -- -- -- -- 0 909 0 99
2019-04-02 07:00:00 6.3 -- -- -- -- 0 909 -0.2 99
2019-04-02 06:00:00 6.2 -- -- -- -- 3.2 909.4 -0.2 99
2019-04-02 05:00:00 7.5 -- -- -- -- 0 909 -0.7 99
2019-04-02 04:00:00 7.6 -- -- -- -- 0 909.2 -0.5 99
2019-04-02 03:00:00 7.7 -- -- -- -- 0 909.6 0 99
2019-04-02 02:00:00 7.8 -- -- -- -- 0 909.7 0.4 99
2019-04-02 01:00:00 8.3 -- -- -- -- 0 909.7 0.8 99
2019-04-02 00:00:00 8.2 -- -- -- -- 0 909.6 1.5 99
2019-04-01 23:00:00 8.4 -- -- -- -- 0 909.3 1.8 99
2019-04-01 22:00:00 9 -- -- -- -- 0 908.9 1.6 99
2019-04-01 21:00:00 9.7 -- -- -- -- 0 908.1 0.9 99
2019-04-01 20:00:00 10.6 -- -- -- -- 0 907.5 0.2 99
2019-04-01 19:00:00 10.7 -- -- -- -- 1.8 907.3 -0.2 99
2019-04-01 18:00:00 10.6 -- -- -- -- 0.1 907.2 -0.3 99
2019-04-01 17:00:00 11 -- -- -- -- 0.1 907.3 -0.4 99
2019-04-01 16:00:00 10.1 -- -- -- -- 1.4 907.5 -0.6 99
2019-04-01 15:00:00 10.9 -- -- -- -- 1.4 907.5 -0.8 99
2019-04-01 14:00:00 12.4 -- -- -- -- 0 907.7 -0.3 99
2019-04-01 13:00:00 11.1 -- -- -- -- 0.1 908.1 0.7 99
2019-04-01 12:00:00 9.5 -- -- -- -- 0 908.3 1 99
2019-04-01 11:00:00 8.2 -- -- -- -- 0.3 908 1.1 99
2019-04-01 10:00:00 7.8 -- -- -- -- 0.1 907.4 0.8 99
2019-04-01 09:00:00 7.2 -- -- -- -- 0.5 907.3 0.6 99
2019-04-01 08:00:00 6.8 -- -- -- -- 1.4 906.9 0.3 99
2019-04-01 07:00:00 6.9 -- -- -- -- 0.8 906.6 -0.2 99
2019-04-01 06:00:00 6.8 -- -- -- -- 0.1 906.7 -0.3 99
2019-04-01 05:00:00 6.7 -- -- -- -- 0.1 906.6 -0.7 99
2019-04-01 04:00:00 6.8 -- -- -- -- 0.1 906.8 -0.6 99
2019-04-01 03:00:00 6.7 -- -- -- -- 0 907 -0.5 99
2019-04-01 02:00:00 6.8 -- -- -- -- 0.2 907.3 0 99
2019-04-01 01:00:00 7 -- -- -- -- 0.2 907.4 0.2 99
2019-04-01 00:00:00 7 -- -- -- -- 0 907.5 0.8 99
2019-03-31 23:00:00 7 -- -- -- -- 0.1 907.3 0.8 99
2019-03-31 22:00:00 7.3 -- -- -- -- 0.1 907.2 0.7 99
2019-03-31 21:00:00 7.6 -- -- -- -- 0.1 906.7 0.1 99
2019-03-31 20:00:00 8.1 -- -- -- -- 0 906.5 0 99
2019-03-31 19:00:00 8.6 -- -- -- -- 0.3 906.5 -0.3 99
2019-03-31 18:00:00 9 -- -- -- -- 0.9 906.6 -0.5 99
2019-03-31 17:00:00 9 -- -- -- -- 0.5 906.5 -1 99
2019-03-31 16:00:00 9.1 -- -- -- -- 1.6 906.8 -1.1 99
2019-03-31 15:00:00 9.3 -- -- -- -- 1.8 907.1 -1.2 99
2019-03-31 14:00:00 9.8 -- -- -- -- 1 907.5 -0.9 99
2019-03-31 13:00:00 9.5 -- -- -- -- 0.6 907.9 -0.3 99
2019-03-31 12:00:00 8.7 -- -- -- -- 0.4 908.3 0.1 99
2019-03-31 11:00:00 8.3 -- -- -- -- 0 908.4 0.3 99
2019-03-31 10:00:00 6.9 -- -- -- -- 0 908.2 -0.1 99
2019-03-31 09:00:00 6 -- -- -- -- 0 908.2 -0.5 99
2019-03-31 08:00:00 5.7 -- -- -- -- 0.1 908.1 -0.9 99
2019-03-31 07:00:00 5.9 -- -- -- -- 0 908.3 -1.4 99
2019-03-31 06:00:00 5.8 -- -- -- -- 0 908.7 -1.7 99
2019-03-31 05:00:00 5.3 -- -- -- -- 0 909 -1.8 99
2019-03-31 03:00:00 5.6 -- -- -- -- 0 910.4 -0.7 99
2019-03-31 01:00:00 5.1 -- -- -- -- 0 910.8 -0.4 99
2019-03-31 00:00:00 6.1 -- -- -- -- 0 911 0.2 99
2019-03-30 23:00:00 7.5 -- -- -- -- 0 911.1 1.1 99
2019-03-30 22:00:00 9.2 -- -- -- -- 0 911.2 1.9 95
2019-03-30 21:00:00 10.6 -- -- -- -- 0 910.8 1.9 86
2019-03-30 20:00:00 12.5 -- -- -- -- 0 910 0.9 80
2019-03-30 19:00:00 15.1 -- -- -- -- 0 909.3 -0.7 61
2019-03-30 18:00:00 17.6 -- -- -- -- 0 908.9 -1.8 53
2019-03-30 17:00:00 19.5 -- -- -- -- 0 909.1 -2.3 51
2019-03-30 16:00:00 17.2 -- -- -- -- 0 910 -2.3 53
2019-03-30 15:00:00 18.2 -- -- -- -- 0 910.7 -2 52
2019-03-30 14:00:00 17.7 -- -- -- -- 0 911.4 -2.3 54
2019-03-30 13:00:00 17.7 -- -- -- -- 0 912.3 -1.8 56
2019-03-30 12:00:00 15.8 -- -- -- -- 0 912.7 -2.1 59
2019-03-30 11:00:00 14.2 -- -- -- -- 0 913.7 -1.5 62
2019-03-30 10:00:00 10.6 -- -- -- -- 0 914.1 -1 83
2019-03-30 09:00:00 1.5 -- -- -- -- 0 914.8 -0.3 99
2019-03-30 08:00:00 -0.8 -- -- -- -- 0 915.2 0 99
2019-03-30 07:00:00 -1.1 -- -- -- -- 0 915.1 -0.4 99
2019-03-30 06:00:00 -0.8 -- -- -- -- 0 915.1 -0.7 99
2019-03-30 05:00:00 -0.3 -- -- -- -- 0 915.2 -0.8 99
2019-03-30 04:00:00 -0.1 -- -- -- -- 0 915.5 -0.9 99
2019-03-30 03:00:00 0.8 -- -- -- -- 0 915.8 -0.8 99
2019-03-30 02:00:00 1.6 -- -- -- -- 0 916 -0.7 99
2019-03-30 01:00:00 2 -- -- -- -- 0 916.4 0.3 99
2019-03-30 00:00:00 3.1 -- -- -- -- 0 916.6 1.1 99
2019-03-29 23:00:00 4.5 -- -- -- -- 0 916.7 2.1 99
2019-03-29 22:00:00 6.2 -- -- -- -- 0 916.1 1.9 93
2019-03-29 21:00:00 8.2 -- -- -- -- 0 915.5 1.7 85
2019-03-29 20:00:00 11.3 -- -- -- -- 0 914.6 0.8 73
2019-03-29 19:00:00 14.1 -- -- -- -- 0 914.2 0 62
2019-03-29 18:00:00 17 -- -- -- -- 0 913.8 -0.8 51
2019-03-29 17:00:00 18.2 -- -- -- -- 0 913.8 -1.7 48
2019-03-29 16:00:00 18.1 -- -- -- -- 0 914.2 -2.2 48
2019-03-29 15:00:00 18 -- -- -- -- 0 914.6 -2.3 49
2019-03-29 14:00:00 16.7 -- -- -- -- 0 915.5 -2 51
2019-03-29 13:00:00 16.5 -- -- -- -- 0 916.4 -1.6 53
2019-03-29 12:00:00 15.8 -- -- -- -- 0 916.9 -1.6 54
2019-03-29 11:00:00 13.7 -- -- -- -- 0 917.5 -1.3 58
2019-03-29 10:00:00 10.3 -- -- -- -- 0 918 -0.6 83
2019-03-29 09:00:00 1.3 -- -- -- -- 0 918.5 -0.2 99
2019-03-29 08:00:00 -0.5 -- -- -- -- 0 918.8 0.4 99
2019-03-29 07:00:00 -1.2 -- -- -- -- 0 918.6 0.1 99
2019-03-29 06:00:00 -0.6 -- -- -- -- 0 918.7 0 99
2019-03-29 05:00:00 -0.3 -- -- -- -- 0 918.4 -0.5 99
2019-03-29 04:00:00 0.1 -- -- -- -- 0 918.5 -0.4 99
2019-03-29 03:00:00 0.6 -- -- -- -- 0 918.7 0.1 99
2019-03-29 02:00:00 1 -- -- -- -- 0 918.9 0.5 99
2019-03-29 01:00:00 1.8 -- -- -- -- 0 918.9 0.8 99
2019-03-29 00:00:00 2.5 -- -- -- -- 0 918.6 1 99
2019-03-28 23:00:00 4.2 -- -- -- -- 0 918.4 1.7 98
2019-03-28 22:00:00 5 -- -- -- -- 0 918.1 2 96
2019-03-28 21:00:00 7.2 -- -- -- -- 0 917.6 2.1 88
2019-03-28 20:00:00 9.4 -- -- -- -- 0 916.7 1.2 81
2019-03-28 19:00:00 13.1 -- -- -- -- 0 916.1 0.3 63
2019-03-28 18:00:00 18.5 -- -- -- -- 0 915.5 -0.9 47
2019-03-28 17:00:00 19.8 -- -- -- -- 0 915.5 -1.8 47
2019-03-28 16:00:00 18.2 -- -- -- -- 0 915.8 -1.9 48
2019-03-28 15:00:00 19.3 -- -- -- -- 0 916.4 -2.1 49
2019-03-28 14:00:00 17.6 -- -- -- -- 0 917.3 -1.8 52
2019-03-28 13:00:00 17.2 -- -- -- -- 0 917.7 -2 52
2019-03-28 12:00:00 15.9 -- -- -- -- 0 918.5 -1.6 57
2019-03-28 11:00:00 14.7 -- -- -- -- 0 919.1 -1.4 61
2019-03-28 10:00:00 9 -- -- -- -- 0 919.7 -0.5 81
2019-03-28 09:00:00 0.9 -- -- -- -- 0 920.1 0.1 99
2019-03-28 08:00:00 -1.1 -- -- -- -- 0 920.5 0.9 99
2019-03-28 07:00:00 -1.4 -- -- -- -- 0 920.2 0.6 99
2019-03-28 06:00:00 -1.1 -- -- -- -- 0 920 0.7 99
2019-03-28 05:00:00 -0.6 -- -- -- -- 0 919.6 0.7 99
2019-03-28 04:00:00 -0.3 -- -- -- -- 0 919.6 0.7 99
2019-03-28 03:00:00 0.1 -- -- -- -- 0 919.3 0.9 99
2019-03-28 02:00:00 0.9 -- -- -- -- 0 918.9 1 99
2019-03-28 01:00:00 1.7 -- -- -- -- 0 918.9 1.6 96
2019-03-28 00:00:00 2.7 -- -- -- -- 0 918.4 1.8 92
2019-03-27 23:00:00 4.1 -- -- -- -- 0 917.9 2.4 87
2019-03-27 22:00:00 5.9 -- -- -- -- 0 917.3 2.6 78
2019-03-27 21:00:00 8 -- -- -- -- 0 916.6 2.3 68
2019-03-27 20:00:00 11.2 -- -- -- -- 0 915.5 1.5 54
2019-03-27 19:00:00 15.3 -- -- -- -- 0 914.7 0.6 45
2019-03-27 18:00:00 18.1 -- -- -- -- 0 914.3 0.3 42
2019-03-27 17:00:00 18.7 -- -- -- -- 0 914 -0.6 41
2019-03-27 16:00:00 18.4 -- -- -- -- 0 914.1 -1.1 41
2019-03-27 15:00:00 18.8 -- -- -- -- 0 914 -2.1 41
2019-03-27 14:00:00 18.5 -- -- -- -- 0 914.6 -1.9 43
2019-03-27 13:00:00 16.7 -- -- -- -- 0 915.2 -1.6 51
2019-03-27 12:00:00 15.9 -- -- -- -- 0 916.1 -1.1 61
2019-03-27 11:00:00 12.9 -- -- -- -- 0 916.5 -0.4 71
2019-03-27 10:00:00 8.1 -- -- -- -- 0 916.8 0.6 86
2019-03-27 09:00:00 0.2 -- -- -- -- 0 917.2 1.4 99
2019-03-27 08:00:00 -1.5 -- -- -- -- 0 916.9 1.3 99
2019-03-27 07:00:00 -1.8 -- -- -- -- 0 916.2 0.9 99
2019-03-27 06:00:00 -1.6 -- -- -- -- 0 915.8 0.6 99
2019-03-27 05:00:00 -0.8 -- -- -- -- 0 915.6 0.1 99
2019-03-27 04:00:00 -0.1 -- -- -- -- 0 915.3 0.1 99
2019-03-27 03:00:00 0.5 -- -- -- -- 0 915.2 0.4 95
2019-03-27 02:00:00 2.1 -- -- -- -- 0 915.5 1 89
2019-03-27 01:00:00 3.8 -- -- -- -- 0 915.2 1.2 75
2019-03-27 00:00:00 4.3 -- -- -- -- 0 914.8 1.5 71
2019-03-26 23:00:00 6.6 -- -- -- -- 0 914.5 2 62
2019-03-26 22:00:00 7.5 -- -- -- -- 0 914 2.1 59
2019-03-26 21:00:00 10.2 -- -- -- -- 0 913.3 2 54
2019-03-26 20:00:00 10.6 -- -- -- -- 0 912.5 1.4 47
2019-03-26 19:00:00 15.6 -- -- -- -- 0 911.9 0.9 41
2019-03-26 18:00:00 17.7 -- -- -- -- 0 911.3 0.2 40
2019-03-26 17:00:00 18.7 -- -- -- -- 0 911.1 -0.5 39
2019-03-26 16:00:00 19.2 -- -- -- -- 0 911 -0.8 40
2019-03-26 15:00:00 19.4 -- -- -- -- 0 911.1 -1 36
2019-03-26 14:00:00 19 -- -- -- -- 0 911.6 -1.2 42
2019-03-26 13:00:00 18.2 -- -- -- -- 0 911.8 -1.5 42
2019-03-26 12:00:00 18.5 -- -- -- -- 0 912.1 -1.3 51
2019-03-26 11:00:00 14.9 -- -- -- -- 0 912.8 -0.9 65
2019-03-26 10:00:00 11.5 -- -- -- -- 0 913.3 0.3 76
2019-03-26 09:00:00 2.7 -- -- -- -- 0 913.4 0.6 99
2019-03-26 08:00:00 0.4 -- -- -- -- 0 913.7 1.1 99
2019-03-26 07:00:00 0 -- -- -- -- 0 913 0.3 99
2019-03-26 06:00:00 0 -- -- -- -- 0 912.8 -0.1 99
2019-03-26 05:00:00 0.2 -- -- -- -- 0 912.6 -0.5 99
2019-03-26 04:00:00 0.6 -- -- -- -- 0 912.7 -0.7 99
2019-03-26 03:00:00 0.8 -- -- -- -- 0 912.9 -0.4 99
2019-03-26 02:00:00 1.6 -- -- -- -- 0 913.1 0 99
2019-03-26 01:00:00 2.3 -- -- -- -- 0 913.4 0.6 99
2019-03-26 00:00:00 3.4 -- -- -- -- 0 913.3 0.9 94
2019-03-25 23:00:00 4.4 -- -- -- -- 0 913.1 1.4 86
2019-03-25 22:00:00 6.4 -- -- -- -- 0 912.8 1.5 74
2019-03-25 21:00:00 8.8 -- -- -- -- 0 912.4 1.7 62
2019-03-25 20:00:00 12.6 -- -- -- -- 0 911.7 1 50
2019-03-25 19:00:00 15.9 -- -- -- -- 0 911.3 0.3 47
2019-03-25 18:00:00 18.7 -- -- -- -- 0 910.7 -1 47
2019-03-25 17:00:00 19.9 -- -- -- -- 0 910.7 -1.9 46
2019-03-25 16:00:00 20.2 -- -- -- -- 0 911 -2.4 45
2019-03-25 15:00:00 20.3 -- -- -- -- 0 911.7 -2.5 46
2019-03-25 14:00:00 19.1 -- -- -- -- 0 912.6 -2.3 48
2019-03-25 13:00:00 18.6 -- -- -- -- 0 913.4 -2 50
2019-03-25 12:00:00 17.9 -- -- -- -- 0 914.2 -1.7 53
2019-03-25 11:00:00 17.8 -- -- -- -- 0 914.9 -1.4 61
2019-03-25 10:00:00 9.9 -- -- -- -- 0 915.4 -0.5 89
2019-03-25 09:00:00 2.2 -- -- -- -- 0 915.9 -0.2 99
2019-03-25 08:00:00 0.3 -- -- -- -- 0 916.3 0.1 99
2019-03-25 07:00:00 0 -- -- -- -- 0 915.9 -0.4 99
2019-03-25 06:00:00 0.2 -- -- -- -- 0 916.1 -0.5 99
2019-03-25 05:00:00 0.7 -- -- -- -- 0 916.2 -0.6 99
2019-03-25 04:00:00 1.3 -- -- -- -- 0 916.3 -0.5 99
2019-03-25 03:00:00 1.8 -- -- -- -- 0 916.6 -0.4 99
2019-03-25 02:00:00 2.5 -- -- -- -- 0 916.8 0 99
2019-03-25 01:00:00 3.1 -- -- -- -- 0 916.8 0.4 99
2019-03-25 00:00:00 3.4 -- -- -- -- 0 917 1.2 99